sensor_id;sensor_type;location;lat;lon;timestamp;temperature;humidity
16825;DHT22;8529;48.108;-1.706;2023-07-29T00:33:48;19.10;99.90
16825;DHT22;8529;48.108;-1.706;2023-07-29T01:48:06;19.40;99.90
16825;DHT22;8529;48.108;-1.706;2023-07-29T01:50:33;19.40;99.90
16825;DHT22;8529;48.108;-1.706;2023-07-29T02:22:32;19.60;99.90
16825;DHT22;8529;48.108;-1.706;2023-07-29T03:01:53;19.20;99.90
16825;DHT22;8529;48.108;-1.706;2023-07-29T03:09:16;19.30;99.90
16825;DHT22;8529;48.108;-1.706;2023-07-29T03:11:43;19.30;99.90
16825;DHT22;8529;48.108;-1.706;2023-07-29T03:14:10;19.30;99.90
16825;DHT22;8529;48.108;-1.706;2023-07-29T03:16:37;19.20;99.90
16825;DHT22;8529;48.108;-1.706;2023-07-29T03:19:04;19.30;99.90
16825;DHT22;8529;48.108;-1.706;2023-07-29T03:21:31;19.30;99.90
16825;DHT22;8529;48.108;-1.706;2023-07-29T03:24:00;19.20;99.90
16825;DHT22;8529;48.108;-1.706;2023-07-29T03:26:27;19.20;99.90
16825;DHT22;8529;48.108;-1.706;2023-07-29T03:31:21;19.20;99.90
16825;DHT22;8529;48.108;-1.706;2023-07-29T03:33:48;19.20;99.90
16825;DHT22;8529;48.108;-1.706;2023-07-29T03:38:42;19.20;99.90
16825;DHT22;8529;48.108;-1.706;2023-07-29T03:41:11;19.10;99.90
16825;DHT22;8529;48.108;-1.706;2023-07-29T03:43:38;19.10;99.90
16825;DHT22;8529;48.108;-1.706;2023-07-29T03:46:05;19.10;99.90
16825;DHT22;8529;48.108;-1.706;2023-07-29T03:48:32;19.10;99.90
16825;DHT22;8529;48.108;-1.706;2023-07-29T03:50:59;19.10;99.90
16825;DHT22;8529;48.108;-1.706;2023-07-29T03:53:26;19.10;99.90
16825;DHT22;8529;48.108;-1.706;2023-07-29T03:55:53;19.10;99.90
16825;DHT22;8529;48.108;-1.706;2023-07-29T03:58:21;19.10;99.90
16825;DHT22;8529;48.108;-1.706;2023-07-29T04:00:48;19.10;99.90
16825;DHT22;8529;48.108;-1.706;2023-07-29T04:03:15;19.10;99.90
16825;DHT22;8529;48.108;-1.706;2023-07-29T04:05:41;19.10;99.90
16825;DHT22;8529;48.108;-1.706;2023-07-29T04:08:08;19.20;99.90
16825;DHT22;8529;48.108;-1.706;2023-07-29T04:17:59;19.20;99.90
16825;DHT22;8529;48.108;-1.706;2023-07-29T04:20:26;19.10;99.90
16825;DHT22;8529;48.108;-1.706;2023-07-29T04:22:53;19.10;99.90
16825;DHT22;8529;48.108;-1.706;2023-07-29T04:27:47;19.00;99.90
16825;DHT22;8529;48.108;-1.706;2023-07-29T04:30:14;19.10;99.90
16825;DHT22;8529;48.108;-1.706;2023-07-29T04:32:42;19.10;99.90
16825;DHT22;8529;48.108;-1.706;2023-07-29T04:35:10;19.10;99.90
16825;DHT22;8529;48.108;-1.706;2023-07-29T05:21:51;19.10;99.90
16825;DHT22;8529;48.108;-1.706;2023-07-29T05:24:19;19.10;99.90
16825;DHT22;8529;48.108;-1.706;2023-07-29T05:26:46;19.20;99.90
16825;DHT22;8529;48.108;-1.706;2023-07-29T05:29:13;19.10;99.90
16825;DHT22;8529;48.108;-1.706;2023-07-29T05:31:40;19.20;99.90
16825;DHT22;8529;48.108;-1.706;2023-07-29T05:34:07;19.20;99.90
16825;DHT22;8529;48.108;-1.706;2023-07-29T05:36:34;19.20;99.90
16825;DHT22;8529;48.108;-1.706;2023-07-29T05:39:01;19.20;99.90
16825;DHT22;8529;48.108;-1.706;2023-07-29T05:41:29;19.20;99.90
16825;DHT22;8529;48.108;-1.706;2023-07-29T05:43:56;19.20;99.90
16825;DHT22;8529;48.108;-1.706;2023-07-29T05:46:23;19.20;99.90
16825;DHT22;8529;48.108;-1.706;2023-07-29T05:48:50;19.30;99.90
16825;DHT22;8529;48.108;-1.706;2023-07-29T05:51:16;19.20;99.90
16825;DHT22;8529;48.108;-1.706;2023-07-29T05:53:43;19.20;99.90
16825;DHT22;8529;48.108;-1.706;2023-07-29T05:56:10;19.20;99.90
16825;DHT22;8529;48.108;-1.706;2023-07-29T05:58:39;19.20;99.90
16825;DHT22;8529;48.108;-1.706;2023-07-29T06:01:05;19.30;99.90
16825;DHT22;8529;48.108;-1.706;2023-07-29T06:03:32;19.30;99.90
16825;DHT22;8529;48.108;-1.706;2023-07-29T06:05:59;19.30;99.90
16825;DHT22;8529;48.108;-1.706;2023-07-29T06:08:26;19.30;99.90
16825;DHT22;8529;48.108;-1.706;2023-07-29T06:10:54;19.30;99.90
16825;DHT22;8529;48.108;-1.706;2023-07-29T06:13:20;19.30;99.90
16825;DHT22;8529;48.108;-1.706;2023-07-29T06:15:49;19.30;99.90
16825;DHT22;8529;48.108;-1.706;2023-07-29T06:18:16;19.40;99.90
16825;DHT22;8529;48.108;-1.706;2023-07-29T06:20:43;19.40;99.90
16825;DHT22;8529;48.108;-1.706;2023-07-29T06:23:10;19.30;99.90
16825;DHT22;8529;48.108;-1.706;2023-07-29T06:25:37;19.30;99.90
16825;DHT22;8529;48.108;-1.706;2023-07-29T06:28:04;19.20;99.90
16825;DHT22;8529;48.108;-1.706;2023-07-29T06:30:31;19.30;99.90
16825;DHT22;8529;48.108;-1.706;2023-07-29T06:32:59;19.20;99.90
16825;DHT22;8529;48.108;-1.706;2023-07-29T06:35:26;19.30;99.90
16825;DHT22;8529;48.108;-1.706;2023-07-29T06:37:53;19.30;99.90
16825;DHT22;8529;48.108;-1.706;2023-07-29T06:40:20;19.20;99.90
16825;DHT22;8529;48.108;-1.706;2023-07-29T06:42:47;19.30;99.90
16825;DHT22;8529;48.108;-1.706;2023-07-29T06:45:14;19.30;99.90
16825;DHT22;8529;48.108;-1.706;2023-07-29T06:47:41;19.30;99.90
16825;DHT22;8529;48.108;-1.706;2023-07-29T06:50:10;19.30;99.90
16825;DHT22;8529;48.108;-1.706;2023-07-29T06:52:37;19.40;99.90
16825;DHT22;8529;48.108;-1.706;2023-07-29T06:55:06;19.40;99.90
16825;DHT22;8529;48.108;-1.706;2023-07-29T06:57:33;19.40;99.90
16825;DHT22;8529;48.108;-1.706;2023-07-29T07:00:00;19.40;99.90
16825;DHT22;8529;48.108;-1.706;2023-07-29T07:02:27;19.40;99.90
16825;DHT22;8529;48.108;-1.706;2023-07-29T07:04:53;19.50;99.90
16825;DHT22;8529;48.108;-1.706;2023-07-29T07:07:22;19.50;99.90
16825;DHT22;8529;48.108;-1.706;2023-07-29T07:09:49;19.60;99.90
16825;DHT22;8529;48.108;-1.706;2023-07-29T07:12:15;19.60;99.90
16825;DHT22;8529;48.108;-1.706;2023-07-29T07:14:42;19.60;99.90
16825;DHT22;8529;48.108;-1.706;2023-07-29T07:17:09;19.60;99.90
16825;DHT22;8529;48.108;-1.706;2023-07-29T07:19:36;19.60;99.90
16825;DHT22;8529;48.108;-1.706;2023-07-29T07:22:03;19.70;99.90
16825;DHT22;8529;48.108;-1.706;2023-07-29T07:24:32;19.70;99.90
16825;DHT22;8529;48.108;-1.706;2023-07-29T07:26:58;19.70;99.90
16825;DHT22;8529;48.108;-1.706;2023-07-29T07:29:25;19.70;99.90
16825;DHT22;8529;48.108;-1.706;2023-07-29T07:31:53;19.70;99.90
16825;DHT22;8529;48.108;-1.706;2023-07-29T07:34:21;19.70;99.90
16825;DHT22;8529;48.108;-1.706;2023-07-29T07:36:48;19.70;99.90
16825;DHT22;8529;48.108;-1.706;2023-07-29T07:39:15;19.70;99.90
16825;DHT22;8529;48.108;-1.706;2023-07-29T07:41:43;19.80;99.90
16825;DHT22;8529;48.108;-1.706;2023-07-29T07:44:10;19.80;99.90
16825;DHT22;8529;48.108;-1.706;2023-07-29T07:46:40;19.80;99.90
16825;DHT22;8529;48.108;-1.706;2023-07-29T07:49:07;19.70;99.90
16825;DHT22;8529;48.108;-1.706;2023-07-29T07:51:34;19.70;99.90
16825;DHT22;8529;48.108;-1.706;2023-07-29T07:54:01;19.70;99.90
16825;DHT22;8529;48.108;-1.706;2023-07-29T07:56:28;19.70;99.90
16825;DHT22;8529;48.108;-1.706;2023-07-29T07:58:56;19.70;99.90
16825;DHT22;8529;48.108;-1.706;2023-07-29T08:01:24;19.80;99.90
16825;DHT22;8529;48.108;-1.706;2023-07-29T08:03:50;19.80;99.90
16825;DHT22;8529;48.108;-1.706;2023-07-29T08:06:17;19.90;99.90
16825;DHT22;8529;48.108;-1.706;2023-07-29T08:08:44;19.90;99.90
16825;DHT22;8529;48.108;-1.706;2023-07-29T08:11:11;19.90;99.90
16825;DHT22;8529;48.108;-1.706;2023-07-29T08:13:38;19.90;99.90
16825;DHT22;8529;48.108;-1.706;2023-07-29T08:16:07;20.00;99.90
16825;DHT22;8529;48.108;-1.706;2023-07-29T08:18:34;20.10;99.90
16825;DHT22;8529;48.108;-1.706;2023-07-29T08:21:01;20.10;99.90
16825;DHT22;8529;48.108;-1.706;2023-07-29T08:23:30;20.10;99.90
16825;DHT22;8529;48.108;-1.706;2023-07-29T08:25:58;20.10;99.90
16825;DHT22;8529;48.108;-1.706;2023-07-29T08:28:27;20.10;99.90
16825;DHT22;8529;48.108;-1.706;2023-07-29T08:30:54;20.10;99.90
16825;DHT22;8529;48.108;-1.706;2023-07-29T08:33:23;20.20;99.90
16825;DHT22;8529;48.108;-1.706;2023-07-29T08:35:50;20.20;99.90
16825;DHT22;8529;48.108;-1.706;2023-07-29T08:38:17;20.20;99.90
16825;DHT22;8529;48.108;-1.706;2023-07-29T08:40:46;20.20;99.90
16825;DHT22;8529;48.108;-1.706;2023-07-29T08:43:17;20.30;99.90
16825;DHT22;8529;48.108;-1.706;2023-07-29T08:45:45;20.30;99.90
16825;DHT22;8529;48.108;-1.706;2023-07-29T08:48:13;20.30;99.90
16825;DHT22;8529;48.108;-1.706;2023-07-29T08:50:44;20.30;99.90
16825;DHT22;8529;48.108;-1.706;2023-07-29T08:53:12;20.30;99.90
16825;DHT22;8529;48.108;-1.706;2023-07-29T08:55:39;20.40;99.90
16825;DHT22;8529;48.108;-1.706;2023-07-29T08:58:07;20.40;99.90
16825;DHT22;8529;48.108;-1.706;2023-07-29T09:00:34;20.40;99.90
16825;DHT22;8529;48.108;-1.706;2023-07-29T09:03:02;20.40;99.90
16825;DHT22;8529;48.108;-1.706;2023-07-29T09:05:33;20.40;99.90
16825;DHT22;8529;48.108;-1.706;2023-07-29T09:08:02;20.40;99.90
16825;DHT22;8529;48.108;-1.706;2023-07-29T09:10:29;20.40;99.90
16825;DHT22;8529;48.108;-1.706;2023-07-29T09:12:56;20.40;99.90
16825;DHT22;8529;48.108;-1.706;2023-07-29T09:15:27;20.40;99.90
16825;DHT22;8529;48.108;-1.706;2023-07-29T09:17:56;20.40;99.90
16825;DHT22;8529;48.108;-1.706;2023-07-29T09:20:26;20.40;99.90
16825;DHT22;8529;48.108;-1.706;2023-07-29T09:22:58;20.50;99.90
16825;DHT22;8529;48.108;-1.706;2023-07-29T09:25:29;20.40;99.90
16825;DHT22;8529;48.108;-1.706;2023-07-29T09:27:59;20.50;99.90
16825;DHT22;8529;48.108;-1.706;2023-07-29T09:30:26;20.50;99.90
16825;DHT22;8529;48.108;-1.706;2023-07-29T09:32:55;20.50;99.90
16825;DHT22;8529;48.108;-1.706;2023-07-29T09:35:22;20.60;99.90
16825;DHT22;8529;48.108;-1.706;2023-07-29T09:37:50;20.60;99.90
16825;DHT22;8529;48.108;-1.706;2023-07-29T09:40:18;20.60;99.90
16825;DHT22;8529;48.108;-1.706;2023-07-29T09:42:50;20.70;99.90
16825;DHT22;8529;48.108;-1.706;2023-07-29T09:45:21;20.70;99.90
16825;DHT22;8529;48.108;-1.706;2023-07-29T09:47:48;20.80;99.90
16825;DHT22;8529;48.108;-1.706;2023-07-29T09:50:16;20.80;99.90
16825;DHT22;8529;48.108;-1.706;2023-07-29T09:52:43;20.80;99.90
16825;DHT22;8529;48.108;-1.706;2023-07-29T09:55:12;20.80;99.90
16825;DHT22;8529;48.108;-1.706;2023-07-29T09:57:39;20.70;99.90
16825;DHT22;8529;48.108;-1.706;2023-07-29T10:00:11;20.80;99.90
16825;DHT22;8529;48.108;-1.706;2023-07-29T10:02:39;20.80;99.90
16825;DHT22;8529;48.108;-1.706;2023-07-29T10:05:07;20.90;99.90
16825;DHT22;8529;48.108;-1.706;2023-07-29T10:07:36;20.90;99.90
16825;DHT22;8529;48.108;-1.706;2023-07-29T10:10:04;21.00;99.90
16825;DHT22;8529;48.108;-1.706;2023-07-29T10:12:32;21.10;99.90
16825;DHT22;8529;48.108;-1.706;2023-07-29T10:15:01;21.20;99.90
16825;DHT22;8529;48.108;-1.706;2023-07-29T10:17:30;21.20;99.90
16825;DHT22;8529;48.108;-1.706;2023-07-29T10:19:57;21.30;99.90
16825;DHT22;8529;48.108;-1.706;2023-07-29T10:22:26;21.30;99.90
16825;DHT22;8529;48.108;-1.706;2023-07-29T10:25:02;21.40;99.90
16825;DHT22;8529;48.108;-1.706;2023-07-29T10:27:31;21.40;99.90
16825;DHT22;8529;48.108;-1.706;2023-07-29T10:30:00;21.40;99.90
16825;DHT22;8529;48.108;-1.706;2023-07-29T10:32:31;21.50;99.90
16825;DHT22;8529;48.108;-1.706;2023-07-29T10:34:58;21.50;99.90
16825;DHT22;8529;48.108;-1.706;2023-07-29T10:37:26;21.50;99.90
16825;DHT22;8529;48.108;-1.706;2023-07-29T10:39:53;21.50;99.90
16825;DHT22;8529;48.108;-1.706;2023-07-29T10:42:21;21.50;99.90
16825;DHT22;8529;48.108;-1.706;2023-07-29T10:44:52;21.50;99.90
16825;DHT22;8529;48.108;-1.706;2023-07-29T10:47:21;21.50;99.90
16825;DHT22;8529;48.108;-1.706;2023-07-29T10:49:50;21.50;99.90
16825;DHT22;8529;48.108;-1.706;2023-07-29T10:52:29;21.50;99.90
16825;DHT22;8529;48.108;-1.706;2023-07-29T10:54:56;21.60;99.90
16825;DHT22;8529;48.108;-1.706;2023-07-29T10:57:31;21.70;99.90
16825;DHT22;8529;48.108;-1.706;2023-07-29T10:59:58;21.70;99.90
16825;DHT22;8529;48.108;-1.706;2023-07-29T11:02:29;21.70;99.90
16825;DHT22;8529;48.108;-1.706;2023-07-29T11:04:58;21.80;99.90
16825;DHT22;8529;48.108;-1.706;2023-07-29T11:07:26;21.80;99.90
16825;DHT22;8529;48.108;-1.706;2023-07-29T11:09:56;21.80;99.90
16825;DHT22;8529;48.108;-1.706;2023-07-29T11:12:41;21.90;99.90
16825;DHT22;8529;48.108;-1.706;2023-07-29T11:15:20;21.90;99.90
16825;DHT22;8529;48.108;-1.706;2023-07-29T11:17:48;21.90;99.90
16825;DHT22;8529;48.108;-1.706;2023-07-29T11:20:18;21.90;99.90
16825;DHT22;8529;48.108;-1.706;2023-07-29T11:22:45;21.80;99.90
16825;DHT22;8529;48.108;-1.706;2023-07-29T11:25:15;21.80;99.90
16825;DHT22;8529;48.108;-1.706;2023-07-29T11:27:42;21.90;99.90
16825;DHT22;8529;48.108;-1.706;2023-07-29T11:30:10;21.80;99.90
16825;DHT22;8529;48.108;-1.706;2023-07-29T11:32:38;21.80;99.90
16825;DHT22;8529;48.108;-1.706;2023-07-29T11:35:07;21.80;99.90
16825;DHT22;8529;48.108;-1.706;2023-07-29T11:37:37;21.80;99.90
16825;DHT22;8529;48.108;-1.706;2023-07-29T11:40:05;21.90;99.90
16825;DHT22;8529;48.108;-1.706;2023-07-29T11:42:33;22.00;99.90
16825;DHT22;8529;48.108;-1.706;2023-07-29T11:45:01;22.10;99.90
16825;DHT22;8529;48.108;-1.706;2023-07-29T11:47:29;22.20;99.90
16825;DHT22;8529;48.108;-1.706;2023-07-29T11:49:58;22.30;99.90
16825;DHT22;8529;48.108;-1.706;2023-07-29T11:52:27;22.30;99.90
16825;DHT22;8529;48.108;-1.706;2023-07-29T11:54:56;22.30;99.90
16825;DHT22;8529;48.108;-1.706;2023-07-29T11:57:24;22.20;99.90
16825;DHT22;8529;48.108;-1.706;2023-07-29T11:59:51;22.20;99.90
16825;DHT22;8529;48.108;-1.706;2023-07-29T12:02:20;22.10;99.90
16825;DHT22;8529;48.108;-1.706;2023-07-29T12:04:48;22.00;99.90
16825;DHT22;8529;48.108;-1.706;2023-07-29T12:07:17;22.00;99.90
16825;DHT22;8529;48.108;-1.706;2023-07-29T12:09:45;21.90;99.90
16825;DHT22;8529;48.108;-1.706;2023-07-29T12:12:15;21.90;99.90
16825;DHT22;8529;48.108;-1.706;2023-07-29T12:14:44;21.90;99.90
16825;DHT22;8529;48.108;-1.706;2023-07-29T12:17:12;22.00;99.90
16825;DHT22;8529;48.108;-1.706;2023-07-29T12:19:40;22.00;99.90
16825;DHT22;8529;48.108;-1.706;2023-07-29T12:22:09;22.00;99.90
16825;DHT22;8529;48.108;-1.706;2023-07-29T12:24:38;22.00;99.90
16825;DHT22;8529;48.108;-1.706;2023-07-29T12:27:09;22.00;99.90
16825;DHT22;8529;48.108;-1.706;2023-07-29T12:29:41;22.10;99.90
16825;DHT22;8529;48.108;-1.706;2023-07-29T12:32:09;22.10;99.90
16825;DHT22;8529;48.108;-1.706;2023-07-29T12:34:37;22.20;99.90
16825;DHT22;8529;48.108;-1.706;2023-07-29T12:37:06;22.20;99.90
16825;DHT22;8529;48.108;-1.706;2023-07-29T12:39:35;22.20;99.90
16825;DHT22;8529;48.108;-1.706;2023-07-29T12:42:03;22.30;99.90
16825;DHT22;8529;48.108;-1.706;2023-07-29T12:44:31;22.30;99.90
16825;DHT22;8529;48.108;-1.706;2023-07-29T12:47:00;22.30;99.90
16825;DHT22;8529;48.108;-1.706;2023-07-29T12:49:28;22.20;99.90
16825;DHT22;8529;48.108;-1.706;2023-07-29T12:51:55;22.20;99.90
16825;DHT22;8529;48.108;-1.706;2023-07-29T12:54:22;22.20;99.90
16825;DHT22;8529;48.108;-1.706;2023-07-29T12:56:49;22.20;99.90
16825;DHT22;8529;48.108;-1.706;2023-07-29T12:59:16;22.30;99.90
16825;DHT22;8529;48.108;-1.706;2023-07-29T13:01:43;22.40;99.90
16825;DHT22;8529;48.108;-1.706;2023-07-29T13:04:11;22.40;99.90
16825;DHT22;8529;48.108;-1.706;2023-07-29T13:06:38;22.40;99.90
16825;DHT22;8529;48.108;-1.706;2023-07-29T13:09:05;22.40;99.90
16825;DHT22;8529;48.108;-1.706;2023-07-29T13:11:32;22.40;99.90
16825;DHT22;8529;48.108;-1.706;2023-07-29T13:13:59;22.40;99.90
16825;DHT22;8529;48.108;-1.706;2023-07-29T13:16:27;22.40;99.90
16825;DHT22;8529;48.108;-1.706;2023-07-29T13:18:54;22.30;99.90
16825;DHT22;8529;48.108;-1.706;2023-07-29T13:21:22;22.30;99.90
16825;DHT22;8529;48.108;-1.706;2023-07-29T13:23:49;22.30;99.90
16825;DHT22;8529;48.108;-1.706;2023-07-29T13:26:16;22.30;99.90
16825;DHT22;8529;48.108;-1.706;2023-07-29T13:28:43;22.30;99.90
16825;DHT22;8529;48.108;-1.706;2023-07-29T13:31:10;22.30;99.90
16825;DHT22;8529;48.108;-1.706;2023-07-29T13:33:38;22.30;99.90
16825;DHT22;8529;48.108;-1.706;2023-07-29T13:36:05;22.30;99.90
16825;DHT22;8529;48.108;-1.706;2023-07-29T13:38:35;22.30;99.90
16825;DHT22;8529;48.108;-1.706;2023-07-29T13:41:02;22.30;99.90
16825;DHT22;8529;48.108;-1.706;2023-07-29T13:43:29;22.30;99.90
16825;DHT22;8529;48.108;-1.706;2023-07-29T13:45:55;22.40;99.90
16825;DHT22;8529;48.108;-1.706;2023-07-29T13:48:22;22.40;99.90
16825;DHT22;8529;48.108;-1.706;2023-07-29T13:50:49;22.50;99.90
16825;DHT22;8529;48.108;-1.706;2023-07-29T13:53:16;22.50;99.90
16825;DHT22;8529;48.108;-1.706;2023-07-29T13:55:45;22.60;99.90
16825;DHT22;8529;48.108;-1.706;2023-07-29T13:58:12;22.60;99.90
16825;DHT22;8529;48.108;-1.706;2023-07-29T14:00:39;22.70;99.90
16825;DHT22;8529;48.108;-1.706;2023-07-29T14:03:05;22.70;99.90
16825;DHT22;8529;48.108;-1.706;2023-07-29T14:05:32;22.60;99.90
16825;DHT22;8529;48.108;-1.706;2023-07-29T14:07:59;22.60;99.90
16825;DHT22;8529;48.108;-1.706;2023-07-29T14:10:26;22.60;99.90
16825;DHT22;8529;48.108;-1.706;2023-07-29T14:12:54;22.60;99.90
16825;DHT22;8529;48.108;-1.706;2023-07-29T14:15:21;22.60;99.90
16825;DHT22;8529;48.108;-1.706;2023-07-29T14:17:48;22.60;99.90
16825;DHT22;8529;48.108;-1.706;2023-07-29T14:20:15;22.60;99.90
16825;DHT22;8529;48.108;-1.706;2023-07-29T14:22:42;22.60;99.90
16825;DHT22;8529;48.108;-1.706;2023-07-29T14:25:09;22.60;99.90
16825;DHT22;8529;48.108;-1.706;2023-07-29T14:27:37;22.60;99.90
16825;DHT22;8529;48.108;-1.706;2023-07-29T14:30:06;22.60;99.90
16825;DHT22;8529;48.108;-1.706;2023-07-29T14:32:33;22.60;99.90
16825;DHT22;8529;48.108;-1.706;2023-07-29T14:35:00;22.70;99.90
16825;DHT22;8529;48.108;-1.706;2023-07-29T14:37:29;22.70;99.90
16825;DHT22;8529;48.108;-1.706;2023-07-29T14:39:56;22.80;99.90
16825;DHT22;8529;48.108;-1.706;2023-07-29T14:42:23;22.80;99.90
16825;DHT22;8529;48.108;-1.706;2023-07-29T14:44:50;22.80;99.90
16825;DHT22;8529;48.108;-1.706;2023-07-29T14:47:18;22.80;99.90
16825;DHT22;8529;48.108;-1.706;2023-07-29T14:49:45;22.80;99.90
16825;DHT22;8529;48.108;-1.706;2023-07-29T14:52:13;22.80;99.90
16825;DHT22;8529;48.108;-1.706;2023-07-29T14:54:40;22.80;99.90
16825;DHT22;8529;48.108;-1.706;2023-07-29T14:57:07;22.90;99.90
16825;DHT22;8529;48.108;-1.706;2023-07-29T14:59:34;22.90;99.90
16825;DHT22;8529;48.108;-1.706;2023-07-29T15:02:01;22.90;99.90
16825;DHT22;8529;48.108;-1.706;2023-07-29T15:04:29;22.90;99.90
16825;DHT22;8529;48.108;-1.706;2023-07-29T15:06:56;23.00;99.90
16825;DHT22;8529;48.108;-1.706;2023-07-29T15:09:23;23.00;99.90
16825;DHT22;8529;48.108;-1.706;2023-07-29T15:11:50;23.00;99.90
16825;DHT22;8529;48.108;-1.706;2023-07-29T15:14:17;23.00;99.90
16825;DHT22;8529;48.108;-1.706;2023-07-29T15:16:44;23.00;99.90
16825;DHT22;8529;48.108;-1.706;2023-07-29T15:19:11;22.90;99.90
16825;DHT22;8529;48.108;-1.706;2023-07-29T15:21:40;22.90;99.90
16825;DHT22;8529;48.108;-1.706;2023-07-29T15:24:07;22.90;99.90
16825;DHT22;8529;48.108;-1.706;2023-07-29T15:26:34;22.90;99.90
16825;DHT22;8529;48.108;-1.706;2023-07-29T15:29:01;22.90;99.90
16825;DHT22;8529;48.108;-1.706;2023-07-29T15:31:28;22.90;99.90
16825;DHT22;8529;48.108;-1.706;2023-07-29T15:36:22;22.90;99.90
16825;DHT22;8529;48.108;-1.706;2023-07-29T15:41:18;22.80;99.90
16825;DHT22;8529;48.108;-1.706;2023-07-29T15:48:39;22.70;99.90
16825;DHT22;8529;48.108;-1.706;2023-07-29T15:53:34;22.40;99.90
16825;DHT22;8529;48.108;-1.706;2023-07-29T16:00:56;24.40;99.90
16825;DHT22;8529;48.108;-1.706;2023-07-29T16:08:18;21.70;99.90
16825;DHT22;8529;48.108;-1.706;2023-07-29T16:13:14;20.50;99.90
16825;DHT22;8529;48.108;-1.706;2023-07-29T16:20:37;20.10;99.90
16825;DHT22;8529;48.108;-1.706;2023-07-29T16:23:04;21.80;99.90
16825;DHT22;8529;48.108;-1.706;2023-07-29T16:25:31;21.90;99.90
16825;DHT22;8529;48.108;-1.706;2023-07-29T16:27:58;21.90;99.90
16825;DHT22;8529;48.108;-1.706;2023-07-29T16:30:27;21.90;99.90
16825;DHT22;8529;48.108;-1.706;2023-07-29T16:32:54;21.70;99.90
16825;DHT22;8529;48.108;-1.706;2023-07-29T16:35:21;21.70;99.90
16825;DHT22;8529;48.108;-1.706;2023-07-29T16:37:47;21.80;99.90
16825;DHT22;8529;48.108;-1.706;2023-07-29T16:40:15;21.50;99.90
16825;DHT22;8529;48.108;-1.706;2023-07-29T16:42:42;21.50;99.90
16825;DHT22;8529;48.108;-1.706;2023-07-29T17:02:22;22.00;99.90
16825;DHT22;8529;48.108;-1.706;2023-07-29T17:09:45;18.50;99.90
16825;DHT22;8529;48.108;-1.706;2023-07-29T17:19:34;20.20;99.90
16825;DHT22;8529;48.108;-1.706;2023-07-29T17:22:02;20.20;99.90
16825;DHT22;8529;48.108;-1.706;2023-07-29T17:24:29;20.20;99.90
16825;DHT22;8529;48.108;-1.706;2023-07-29T17:31:51;20.10;99.90
16825;DHT22;8529;48.108;-1.706;2023-07-29T17:34:18;20.00;99.90
16825;DHT22;8529;48.108;-1.706;2023-07-29T17:36:46;20.00;99.90
16825;DHT22;8529;48.108;-1.706;2023-07-29T17:39:15;20.00;99.90
16825;DHT22;8529;48.108;-1.706;2023-07-29T17:41:41;20.00;99.90
16825;DHT22;8529;48.108;-1.706;2023-07-29T17:44:08;20.00;99.90
16825;DHT22;8529;48.108;-1.706;2023-07-29T17:46:35;20.00;99.90
16825;DHT22;8529;48.108;-1.706;2023-07-29T17:49:02;19.90;99.90
16825;DHT22;8529;48.108;-1.706;2023-07-29T17:51:29;19.90;99.90
16825;DHT22;8529;48.108;-1.706;2023-07-29T17:53:56;19.90;99.90
16825;DHT22;8529;48.108;-1.706;2023-07-29T17:56:24;19.80;99.90
16825;DHT22;8529;48.108;-1.706;2023-07-29T17:58:52;19.80;99.90
16825;DHT22;8529;48.108;-1.706;2023-07-29T18:01:19;19.80;99.90
16825;DHT22;8529;48.108;-1.706;2023-07-29T18:03:46;19.80;99.90
16825;DHT22;8529;48.108;-1.706;2023-07-29T18:06:13;19.80;99.90
16825;DHT22;8529;48.108;-1.706;2023-07-29T18:08:40;19.90;99.90
16825;DHT22;8529;48.108;-1.706;2023-07-29T18:11:08;19.90;99.90
16825;DHT22;8529;48.108;-1.706;2023-07-29T18:13:36;19.90;99.90
16825;DHT22;8529;48.108;-1.706;2023-07-29T18:16:03;19.90;99.90
16825;DHT22;8529;48.108;-1.706;2023-07-29T18:18:30;19.90;99.90
16825;DHT22;8529;48.108;-1.706;2023-07-29T18:20:57;19.80;99.90
16825;DHT22;8529;48.108;-1.706;2023-07-29T18:23:24;19.80;99.90
16825;DHT22;8529;48.108;-1.706;2023-07-29T18:25:51;19.80;99.90
16825;DHT22;8529;48.108;-1.706;2023-07-29T18:28:22;19.70;99.90
16825;DHT22;8529;48.108;-1.706;2023-07-29T18:35:45;18.20;99.90
16825;DHT22;8529;48.108;-1.706;2023-07-29T18:38:12;19.70;99.90
16825;DHT22;8529;48.108;-1.706;2023-07-29T18:40:39;19.60;99.90
16825;DHT22;8529;48.108;-1.706;2023-07-29T18:43:06;19.70;99.90
16825;DHT22;8529;48.108;-1.706;2023-07-29T18:45:35;19.70;99.90
16825;DHT22;8529;48.108;-1.706;2023-07-29T18:48:03;19.70;99.90
16825;DHT22;8529;48.108;-1.706;2023-07-29T18:55:25;19.60;99.90
16825;DHT22;8529;48.108;-1.706;2023-07-29T18:57:52;19.60;99.90
16825;DHT22;8529;48.108;-1.706;2023-07-29T19:00:20;19.60;99.90
16825;DHT22;8529;48.108;-1.706;2023-07-29T19:05:15;19.60;99.90
16825;DHT22;8529;48.108;-1.706;2023-07-29T19:10:11;19.60;99.90
16825;DHT22;8529;48.108;-1.706;2023-07-29T19:12:37;19.60;99.90
16825;DHT22;8529;48.108;-1.706;2023-07-29T19:17:32;19.50;99.90
16825;DHT22;8529;48.108;-1.706;2023-07-29T19:22:29;19.40;99.90
16825;DHT22;8529;48.108;-1.706;2023-07-29T19:24:55;19.40;99.90
16825;DHT22;8529;48.108;-1.706;2023-07-29T19:27:22;19.40;99.90
16825;DHT22;8529;48.108;-1.706;2023-07-29T19:29:49;19.40;99.90
16825;DHT22;8529;48.108;-1.706;2023-07-29T19:32:16;19.40;99.90
16825;DHT22;8529;48.108;-1.706;2023-07-29T19:34:43;19.40;99.90
16825;DHT22;8529;48.108;-1.706;2023-07-29T19:37:16;19.40;99.90
16825;DHT22;8529;48.108;-1.706;2023-07-29T19:39:44;19.30;99.90
16825;DHT22;8529;48.108;-1.706;2023-07-29T19:42:11;19.30;99.90
16825;DHT22;8529;48.108;-1.706;2023-07-29T19:44:38;19.30;99.90
16825;DHT22;8529;48.108;-1.706;2023-07-29T19:47:05;19.30;99.90
16825;DHT22;8529;48.108;-1.706;2023-07-29T19:49:33;19.20;99.90
16825;DHT22;8529;48.108;-1.706;2023-07-29T19:51:59;19.20;99.90
16825;DHT22;8529;48.108;-1.706;2023-07-29T19:54:27;19.20;99.90
16825;DHT22;8529;48.108;-1.706;2023-07-29T19:56:55;19.10;99.90
16825;DHT22;8529;48.108;-1.706;2023-07-29T19:59:22;19.10;99.90
16825;DHT22;8529;48.108;-1.706;2023-07-29T20:01:49;19.10;99.90
16825;DHT22;8529;48.108;-1.706;2023-07-29T20:04:16;19.10;99.90
16825;DHT22;8529;48.108;-1.706;2023-07-29T20:06:43;19.10;99.90
16825;DHT22;8529;48.108;-1.706;2023-07-29T20:09:10;19.10;99.90
16825;DHT22;8529;48.108;-1.706;2023-07-29T20:11:37;19.10;99.90
16825;DHT22;8529;48.108;-1.706;2023-07-29T20:14:05;19.10;99.90
16825;DHT22;8529;48.108;-1.706;2023-07-29T20:16:32;19.00;99.90
16825;DHT22;8529;48.108;-1.706;2023-07-29T20:19:00;19.00;99.90
16825;DHT22;8529;48.108;-1.706;2023-07-29T20:21:27;19.00;99.90
16825;DHT22;8529;48.108;-1.706;2023-07-29T20:23:54;19.00;99.90
16825;DHT22;8529;48.108;-1.706;2023-07-29T20:26:21;19.00;99.90
16825;DHT22;8529;48.108;-1.706;2023-07-29T20:28:48;19.00;99.90
16825;DHT22;8529;48.108;-1.706;2023-07-29T20:31:16;19.10;99.90
16825;DHT22;8529;48.108;-1.706;2023-07-29T20:33:43;18.80;99.90
16825;DHT22;8529;48.108;-1.706;2023-07-29T20:36:10;19.00;99.90
16825;DHT22;8529;48.108;-1.706;2023-07-29T20:38:36;19.10;99.90
16825;DHT22;8529;48.108;-1.706;2023-07-29T20:41:03;19.00;99.90
16825;DHT22;8529;48.108;-1.706;2023-07-29T20:43:30;19.00;99.90
16825;DHT22;8529;48.108;-1.706;2023-07-29T20:45:57;18.90;99.90
16825;DHT22;8529;48.108;-1.706;2023-07-29T20:48:25;18.90;99.90
16825;DHT22;8529;48.108;-1.706;2023-07-29T20:50:53;18.90;99.90